Alpena, SD

1:45 AM CDT on July 25, 2014 (GMT -0500)
NonFedAWOS WESSSPRINGS SD US SUPERAWOS (MK4X4) Elev 1545 ft | 44.06 °N, 98.53 °W | Change Station

Current weather conditions updated 50 minutes ago

Clear
Clear
70 °F
Feels Like 70 °F
N
0
Wind Variable Wind from North
Gusts 0.0 mph

Today is forecast to be nearly the same temperature as yesterday.

Today
High -- | Low -- °F
--% Chance of Precip.
Yesterday
High -- | Low -- °F
Precip. -- in
6:14 AM 9:05 PM
Waning Crescent, 3% visible
Pressure 29.68 in
Visibility 10.0 miles
Clouds Clear
Dew Point 64 °F
Humidity 83%
Rainfall -9999.00 in
Snow Depth Not available.
UV 0 out of 12
Pollen 5.90 out of 12
Air Quality Not available.
Flu Activity Not available.
METAR KHON 250555Z AUTO 14010G16KT 10SM CLR 21/17 A2970 RMK AO2 LTG DSNT N SLP050 T02110167 10244 20211 402670167 55004

More Conditions Fewer Conditions

Pressure 29.68 in
Visibility 10.0 miles
Clouds Clear
Dew Point 64 °F
Humidity 83%
Rainfall -9999.00 in
Snow Depth Not available.
UV 0 out of 12
Pollen 5.90 out of 12
Air Quality Not available.
Flu Activity Not available.
METAR KHON 250555Z AUTO 14010G16KT 10SM CLR 21/17 A2970 RMK AO2 LTG DSNT N SLP050 T02110167 10244 20211 402670167 55004

More Conditions Fewer Conditions

10-Day Weather Forecast

Almanac

Astronomy

Jul. 25, 2014 Rise Set
Actual Time 6:14 AM CDT 9:05 PM CDT
Civil Twilight 5:40 AM CDT 9:39 PM CDT
Nautical Twilight 4:57 AM CDT 10:22 PM CDT
Astronomical Twilight 4:06 AM CDT 11:12 PM CDT
Moon 5:16 AM CDT 8:01 PM CDT
Length of Visible Light 15h 59m
Length of Day
14h 51m
Tomorrow will be 2m 5s shorter.
Waning Crescent, 3% of the Moon is Illuminated
Today
Waning Crescent
Jul 26
New
Aug 3
First Quarter
Aug 10
Full
Aug 17
Last Quarter

Today's Extremes

State Highs State Lows

Community

WunderPhotos

Upload Photos

1,737,265 photos uploaded!

Nearby

Snow Depth

Station Depth Elevation
North Rapid Creek 0 in 6130 ft
Blind Park 0 in 6890 ft

Earthquake Activity

City Distance Mag. Time & Date
No recent earthquake activity has been reported nearby.
Minimum magnitude displayed is 2.5.

Coastal Water Temperatures

Place Temperature
No Stations Reporting

Nearby Weather Stations

Station Location Temp. Dew Point Humidity Wind Precip. Elev Updated Type
NonFedAWOS WESSSPRINGS , Wessington Springs, SD 70 °F 64 °F 83% North  at  0 mph 0.00 in / hr 1545 ft 12:55 AM CDT MADIS
Wessington Springs Hills, Wessington Springs, SD 68.9 °F 64 °F 84% NW  at  3.0 mph 0.00 in / hr 1683 ft 1:40 AM CDT Normal
RAWS HURON SD, Wessington, SD 71 °F 69 °F 93% East  at  6 mph 0.00 in / hr 1875 ft 12:41 AM CDT MADIS
HADS JAMES RIVER AT HURON SD, Huron, SD 71 °F - - North  at  - 0.00 in / hr 1220 ft 12:15 AM CDT MADIS

Show More Stations Show Fewer Stations